Time;durP1;ratioP1;P1;durP2;ratioP2;P2;SDS_P1;SDS_P2;PMS_P1;PMS_P2;Temp;Humidity;BMP_temperature;BMP_pressure;BME280_temperature;BME280_humidity;BME280_pressure;Samples;Min_cycle;Max_cycle;Signal;HPM_P1;HPM_P2
2022/11/26 00:00:30;;;;;;;18.17;5.40;;;;;;;9.19;80.64;101616.69;5015618;28;20296;-62
2022/11/26 00:02:57;;;;;;;18.30;5.53;;;;;;;9.15;80.35;101615.22;5023189;28;20549;-64
2022/11/26 00:05:31;;;;;;;14.10;5.23;;;;;;;9.05;80.79;101620.34;5020103;28;20269;-64
2022/11/26 00:08:00;;;;;;;18.30;4.93;;;;;;;9.13;80.95;101628.56;5015951;28;20215;-62
2022/11/26 00:10:31;;;;;;;16.00;5.20;;;;;;;9.19;80.47;101636.06;5014851;28;20239;-63
2022/11/26 00:12:59;;;;;;;11.60;4.43;;;;;;;9.05;80.97;101630.94;5022490;28;20250;-62
2022/11/26 00:15:29;;;;;;;14.57;5.80;;;;;;;9.04;81.21;101630.09;5015435;28;20208;-63
2022/11/26 00:17:57;;;;;;;14.60;4.97;;;;;;;9.01;81.33;101642.66;5023169;28;20216;-62
2022/11/26 00:20:29;;;;;;;20.87;5.97;;;;;;;8.90;81.37;101643.44;5019941;28;20209;-62
2022/11/26 00:23:00;;;;;;;17.87;5.70;;;;;;;8.82;81.33;101644.94;5017990;28;20228;-62
2022/11/26 00:25:37;;;;;;;17.77;5.60;;;;;;;8.76;80.91;101655.94;5021288;28;20213;-64
2022/11/26 00:28:23;;;;;;;16.93;5.23;;;;;;;8.73;80.62;101651.72;5031506;28;20591;-63
2022/11/26 00:30:51;;;;;;;14.27;4.83;;;;;;;8.77;80.27;101662.94;5020403;28;20212;-64
2022/11/26 00:33:19;;;;;;;10.57;4.43;;;;;;;8.72;80.40;101668.53;5021817;28;20216;-68
2022/11/26 00:35:48;;;;;;;17.90;5.03;;;;;;;8.72;80.44;101671.16;5037173;28;20260;-67
2022/11/26 00:38:19;;;;;;;18.57;5.27;;;;;;;8.74;80.56;101673.72;5034143;28;20266;-65
2022/11/26 00:40:48;;;;;;;18.53;5.93;;;;;;;8.70;80.36;101673.09;5040189;28;20268;-67
2022/11/26 00:43:17;;;;;;;11.97;4.63;;;;;;;8.71;80.15;101674.75;5044264;28;20203;-67
2022/11/26 00:45:46;;;;;;;15.67;5.60;;;;;;;8.61;80.16;101673.75;5037630;28;20208;-66
2022/11/26 00:48:15;;;;;;;18.13;5.93;;;;;;;8.49;80.48;101671.94;5037165;28;20221;-66
2022/11/26 00:50:46;;;;;;;14.33;4.93;;;;;;;8.40;80.57;101676.06;5037737;28;20584;-67
2022/11/26 00:53:20;;;;;;;15.67;5.23;;;;;;;8.41;80.44;101677.75;5044111;28;20465;-67
2022/11/26 00:55:50;;;;;;;15.13;5.43;;;;;;;8.48;80.32;101684.31;5038484;28;20211;-67
2022/11/26 00:58:25;;;;;;;14.53;5.27;;;;;;;8.48;80.39;101689.59;5036168;28;20280;-67
2022/11/26 01:00:54;;;;;;;20.40;5.63;;;;;;;8.45;81.24;101687.16;5032984;28;20215;-67
2022/11/26 01:03:22;;;;;;;15.30;7.27;;;;;;;8.47;81.03;101687.03;5042758;28;20235;-67
2022/11/26 01:05:51;;;;;;;19.87;6.10;;;;;;;8.37;81.58;101686.81;5035990;28;20209;-66
2022/11/26 01:08:27;;;;;;;19.27;6.10;;;;;;;8.29;81.35;101700.53;5031560;28;20669;-68
2022/11/26 01:10:56;;;;;;;23.80;6.47;;;;;;;8.20;81.99;101693.22;5031077;28;20238;-67
2022/11/26 01:13:23;;;;;;;15.03;5.97;;;;;;;8.33;82.01;101703.84;5037627;28;20235;-68
2022/11/26 01:15:51;;;;;;;21.47;5.73;;;;;;;8.45;81.28;101704.81;5035054;28;20389;-67
2022/11/26 01:18:21;;;;;;;18.63;5.93;;;;;;;8.50;80.70;101714.13;5041157;28;20675;-66
2022/11/26 01:20:49;;;;;;;20.23;6.67;;;;;;;8.40;80.66;101717.50;5036990;28;20212;-67
2022/11/26 01:23:19;;;;;;;17.60;7.07;;;;;;;8.27;81.14;101717.44;5038332;28;20249;-67
2022/11/26 01:25:47;;;;;;;16.10;5.27;;;;;;;8.22;81.77;101724.84;5034125;28;20222;-67
2022/11/26 01:28:18;;;;;;;16.53;5.70;;;;;;;8.15;81.84;101720.91;5037837;28;20212;-67
2022/11/26 01:30:46;;;;;;;18.03;5.67;;;;;;;8.01;82.67;101728.88;5033841;28;20771;-65
2022/11/26 01:33:14;;;;;;;20.97;5.70;;;;;;;8.02;82.86;101743.78;5043175;28;20276;-66
2022/11/26 01:35:42;;;;;;;20.07;5.90;;;;;;;8.02;82.60;101743.78;5034157;28;20215;-67
2022/11/26 01:38:13;;;;;;;17.27;5.47;;;;;;;8.07;82.62;101747.00;5034730;28;20240;-67
2022/11/26 01:41:11;;;;;;;12.97;5.23;;;;;;;8.14;82.05;101743.84;5039605;28;20213;-67
2022/11/26 01:43:42;;;;;;;13.13;4.77;;;;;;;8.18;81.92;101747.13;5019621;28;20235;-67
2022/11/26 01:46:14;;;;;;;16.63;5.27;;;;;;;8.31;81.44;101750.69;5035311;28;20213;-67
2022/11/26 01:48:43;;;;;;;15.93;5.67;;;;;;;8.36;80.25;101753.84;5032736;28;20214;-66
2022/11/26 01:51:12;;;;;;;16.00;5.27;;;;;;;8.45;79.87;101753.22;5039116;28;20241;-66
2022/11/26 01:53:47;;;;;;;14.03;5.20;;;;;;;8.41;79.94;101766.78;5032270;28;20203;-67
2022/11/26 01:56:27;;;;;;;18.80;5.67;;;;;;;8.38;79.84;101754.59;5035995;28;20269;-67
2022/11/26 01:59:02;;;;;;;14.60;5.07;;;;;;;8.31;80.03;101766.53;5040248;28;20207;-67
2022/11/26 02:01:30;;;;;;;16.63;4.90;;;;;;;8.22;80.17;101764.47;5036216;28;20232;-66
2022/11/26 02:04:07;;;;;;;13.50;5.37;;;;;;;8.18;80.94;101781.50;5032443;28;20266;-67
2022/11/26 02:06:35;;;;;;;15.87;5.37;;;;;;;8.21;80.97;101776.00;5030095;28;20207;-66
2022/11/26 02:09:06;;;;;;;15.30;5.93;;;;;;;8.20;80.37;101774.28;5030475;28;20214;-67
2022/11/26 02:11:34;;;;;;;13.73;4.93;;;;;;;8.04;80.25;101778.88;5029840;28;20294;-67
2022/11/26 02:14:06;;;;;;;19.83;7.07;;;;;;;7.83;80.84;101781.13;5038554;28;20514;-67
2022/11/26 02:16:49;;;;;;;16.83;4.63;;;;;;;7.61;82.33;101786.94;5033754;28;20217;-67
2022/11/26 02:19:32;;;;;;;18.60;5.23;;;;;;;7.46;83.35;101794.03;5043385;28;20209;-67
2022/11/26 02:22:12;;;;;;;13.77;5.53;;;;;;;7.33;84.19;101798.38;5034984;28;20216;-67
2022/11/26 02:24:49;;;;;;;16.53;4.90;;;;;;;7.27;85.13;101798.75;5034808;28;20758;-66
2022/11/26 02:27:55;;;;;;;16.97;5.60;;;;;;;7.19;85.45;101801.03;5043432;28;20294;-67
2022/11/26 02:30:24;;;;;;;16.33;5.83;;;;;;;7.21;85.52;101803.56;4947097;28;20213;-67
2022/11/26 02:32:58;;;;;;;13.53;4.60;;;;;;;7.24;85.44;101803.34;5033522;28;20298;-66
2022/11/26 02:35:32;;;;;;;11.80;4.50;;;;;;;7.43;85.11;101817.13;5034827;28;20297;-67
2022/11/26 02:38:05;;;;;;;17.87;5.07;;;;;;;7.58;83.82;101818.78;5031448;28;20200;-67
2022/11/26 02:40:32;;;;;;;17.43;4.87;;;;;;;7.75;82.68;101815.94;5036292;28;20199;-67
2022/11/26 02:43:00;;;;;;;14.67;4.53;;;;;;;7.81;82.01;101820.84;5034286;28;20227;-65
2022/11/26 02:45:33;;;;;;;12.30;4.10;;;;;;;7.88;81.94;101826.59;5040072;28;20206;-65
2022/11/26 02:48:05;;;;;;;11.97;4.50;;;;;;;7.86;81.24;101829.31;5040561;28;20218;-66
2022/11/26 02:50:39;;;;;;;19.93;5.47;;;;;;;7.83;81.30;101823.38;5030966;28;20237;-64
2022/11/26 02:53:08;;;;;;;16.10;5.40;;;;;;;7.80;81.81;101829.72;5044330;28;20648;-66
2022/11/26 02:55:39;;;;;;;15.90;4.40;;;;;;;7.85;82.00;101830.25;5036492;28;20218;-67
2022/11/26 02:58:08;;;;;;;18.60;4.73;;;;;;;7.97;81.65;101836.56;5033736;28;20211;-66
2022/11/26 03:00:41;;;;;;;13.10;4.57;;;;;;;8.03;80.97;101835.31;5035020;28;20214;-66
2022/11/26 03:03:21;;;;;;;17.87;6.30;;;;;;;8.15;80.13;101835.38;5035803;28;20229;-65
2022/11/26 03:05:52;;;;;;;13.30;4.10;;;;;;;8.02;80.31;101839.75;5035239;28;20201;-64
2022/11/26 03:08:22;;;;;;;15.20;4.10;;;;;;;7.94;81.07;101837.59;5033579;28;20723;-65
2022/11/26 03:10:49;;;;;;;10.57;3.80;;;;;;;7.99;80.92;101845.25;5038934;28;20225;-67
2022/11/26 03:13:17;;;;;;;13.23;4.63;;;;;;;8.04;80.20;101837.84;5043199;28;20230;-66
2022/11/26 03:15:46;;;;;;;11.63;4.10;;;;;;;8.12;79.81;101840.84;5040427;28;20214;-65
2022/11/26 03:18:14;;;;;;;11.43;3.07;;;;;;;8.08;79.95;101835.88;5038649;28;20206;-65
2022/11/26 03:20:42;;;;;;;12.53;3.73;;;;;;;8.08;80.33;101841.16;5036362;28;20221;-66
2022/11/26 03:23:10;;;;;;;17.17;5.47;;;;;;;8.13;80.12;101833.78;5037538;28;20257;-66
2022/11/26 03:25:38;;;;;;;13.93;4.10;;;;;;;8.09;79.80;101834.94;5032975;28;20294;-66
2022/11/26 03:28:06;;;;;;;15.23;4.97;;;;;;;8.16;80.16;101834.44;5036926;28;20219;-65
2022/11/26 03:30:33;;;;;;;11.40;3.60;;;;;;;8.27;79.69;101839.84;5033535;28;20226;-66
2022/11/26 03:33:02;;;;;;;14.43;4.20;;;;;;;8.30;79.42;101834.38;5043067;28;20210;-66
2022/11/26 03:35:30;;;;;;;21.43;4.40;;;;;;;8.15;79.71;101834.53;5040066;28;20414;-67
2022/11/26 03:37:58;;;;;;;14.80;4.03;;;;;;;8.14;80.35;101831.03;5040610;28;20223;-67
2022/11/26 03:40:25;;;;;;;19.03;4.27;;;;;;;8.23;80.04;101837.53;5037322;28;20211;-66
2022/11/26 03:42:53;;;;;;;13.27;4.17;;;;;;;8.30;79.29;101834.38;5037441;28;20229;-66
2022/11/26 03:45:21;;;;;;;16.27;3.80;;;;;;;8.18;79.52;101836.97;5039155;28;20253;-66
2022/11/26 03:47:49;;;;;;;18.43;4.37;;;;;;;8.01;78.89;101834.56;5039467;28;20257;-65
2022/11/26 03:50:18;;;;;;;10.23;3.20;;;;;;;7.72;79.12;101832.00;5034615;28;20734;-67
2022/11/26 03:52:46;;;;;;;9.50;3.47;;;;;;;7.55;79.67;101840.97;5031301;28;20212;-68
2022/11/26 03:55:13;;;;;;;11.90;3.63;;;;;;;7.52;80.21;101840.31;5033599;28;20277;-67
2022/11/26 03:57:41;;;;;;;14.27;3.60;;;;;;;7.57;80.72;101843.50;5035026;28;20270;-66
2022/11/26 04:00:10;;;;;;;8.87;3.90;;;;;;;7.65;80.28;101830.66;5039405;28;20225;-66
2022/11/26 04:02:38;;;;;;;19.47;3.60;;;;;;;7.73;79.55;101841.63;5034199;28;20206;-66
2022/11/26 04:05:06;;;;;;;12.83;3.97;;;;;;;7.75;79.17;101839.69;5031083;28;20219;-66
2022/11/26 04:07:35;;;;;;;12.17;3.43;;;;;;;7.54;79.67;101834.00;5040266;28;20210;-67
2022/11/26 04:10:03;;;;;;;9.40;3.27;;;;;;;7.36;80.16;101839.56;5037252;28;20261;-65
2022/11/26 04:12:31;;;;;;;13.70;4.00;;;;;;;7.16;81.02;101833.69;5040230;28;20237;-66
2022/11/26 04:14:59;;;;;;;14.73;4.13;;;;;;;7.06;81.91;101839.63;5035843;28;20205;-65
2022/11/26 04:17:26;;;;;;;15.80;4.20;;;;;;;7.03;82.63;101830.13;5042563;28;20220;-66
2022/11/26 04:19:54;;;;;;;12.67;4.70;;;;;;;7.00;83.62;101830.31;5031959;28;20202;-66
2022/11/26 04:22:22;;;;;;;13.57;5.00;;;;;;;7.01;84.68;101832.00;5040744;28;20209;-67
2022/11/26 04:24:51;;;;;;;16.20;5.60;;;;;;;7.17;84.55;101830.13;5033449;28;20233;-66
2022/11/26 04:27:19;;;;;;;16.13;5.57;;;;;;;7.34;83.82;101821.19;5035787;28;20210;-67
2022/11/26 04:29:46;;;;;;;17.00;5.90;;;;;;;7.36;84.28;101829.00;5040487;28;20250;-66
2022/11/26 04:32:14;;;;;;;10.30;4.70;;;;;;;7.43;83.57;101832.97;5037434;28;20210;-67
2022/11/26 04:34:42;;;;;;;19.73;5.63;;;;;;;7.36;83.29;101835.13;5036407;28;20259;-67
2022/11/26 04:37:10;;;;;;;17.47;5.30;;;;;;;7.36;83.05;101837.78;5032543;28;20208;-66
2022/11/26 04:39:37;;;;;;;14.87;5.57;;;;;;;7.47;82.60;101850.31;5035506;28;20234;-66
2022/11/26 04:42:06;;;;;;;16.77;7.03;;;;;;;7.33;82.74;101861.69;5033543;28;20232;-66
2022/11/26 04:44:34;;;;;;;22.60;6.47;;;;;;;7.22;83.30;101858.84;5033982;28;20243;-65
2022/11/26 04:47:02;;;;;;;20.63;5.60;;;;;;;7.16;84.46;101865.38;5033363;28;20214;-67
2022/11/26 04:49:30;;;;;;;14.97;6.17;;;;;;;7.06;83.91;101864.22;5030926;28;20219;-67
2022/11/26 04:51:57;;;;;;;19.43;6.03;;;;;;;7.05;84.38;101866.94;5034440;28;20212;-66
2022/11/26 04:54:25;;;;;;;14.13;5.00;;;;;;;7.00;84.17;101874.28;5034025;28;20215;-67
2022/11/26 04:56:53;;;;;;;18.27;6.93;;;;;;;6.96;84.98;101865.69;5039890;28;20205;-67
2022/11/26 04:59:22;;;;;;;14.97;5.50;;;;;;;7.00;86.42;101864.59;5030502;28;20209;-67
2022/11/26 05:01:49;;;;;;;17.27;6.10;;;;;;;7.10;86.50;101883.34;5034809;28;20214;-66
2022/11/26 05:04:17;;;;;;;14.13;6.10;;;;;;;7.10;85.36;101881.56;5032499;28;20263;-66
2022/11/26 05:06:45;;;;;;;16.37;5.60;;;;;;;7.07;84.22;101881.75;5040253;28;20227;-67
2022/11/26 05:09:15;;;;;;;17.13;5.80;;;;;;;7.01;84.46;101887.38;5041985;28;20217;-67
2022/11/26 05:11:42;;;;;;;12.70;5.97;;;;;;;7.10;84.61;101897.41;5031761;28;21015;-67
2022/11/26 05:14:10;;;;;;;19.63;5.53;;;;;;;7.15;84.22;101900.59;5039296;28;20224;-65
2022/11/26 05:16:39;;;;;;;13.70;5.87;;;;;;;7.20;84.52;101905.63;5032386;28;20241;-67
2022/11/26 05:19:07;;;;;;;19.70;7.27;;;;;;;7.21;84.55;101909.09;5035149;28;20586;-67
2022/11/26 05:21:35;;;;;;;13.17;5.60;;;;;;;7.21;83.46;101911.75;5033864;28;20272;-67
2022/11/26 05:24:02;;;;;;;19.20;6.53;;;;;;;7.18;82.71;101915.41;5029588;28;20228;-67
2022/11/26 05:26:30;;;;;;;15.90;6.20;;;;;;;7.15;82.71;101920.84;5032375;28;20210;-67
2022/11/26 05:28:58;;;;;;;13.33;5.90;;;;;;;7.29;82.86;101918.25;5034527;28;20202;-67
2022/11/26 05:31:25;;;;;;;11.77;5.47;;;;;;;7.48;81.84;101917.97;5036104;28;20217;-67
2022/11/26 05:33:54;;;;;;;17.13;5.80;;;;;;;7.59;80.70;101920.81;5035048;28;20206;-66
2022/11/26 05:36:22;;;;;;;14.30;5.57;;;;;;;7.44;80.86;101929.69;5036337;28;20220;-67
2022/11/26 05:38:50;;;;;;;16.37;7.03;;;;;;;7.31;81.59;101924.28;5027968;28;20206;-65
2022/11/26 05:41:17;;;;;;;16.47;6.50;;;;;;;7.25;81.28;101942.25;5036411;28;20216;-66
2022/11/26 05:43:45;;;;;;;18.53;6.17;;;;;;;7.10;81.33;101942.25;5030962;28;20267;-65
2022/11/26 05:46:15;;;;;;;11.87;5.60;;;;;;;6.99;81.71;101947.28;5031318;28;20210;-67
2022/11/26 05:48:43;;;;;;;14.43;5.30;;;;;;;7.05;81.84;101946.06;5032896;28;20230;-67
2022/11/26 05:51:12;;;;;;;11.90;5.20;;;;;;;6.98;82.31;101950.00;5028840;28;20214;-66
2022/11/26 05:53:40;;;;;;;12.90;5.23;;;;;;;6.96;82.72;101947.47;5034154;28;20216;-66
2022/11/26 05:56:08;;;;;;;10.90;5.13;;;;;;;6.94;82.88;101957.28;5031035;28;20299;-66
2022/11/26 05:58:36;;;;;;;14.67;5.67;;;;;;;6.91;82.65;101954.81;5031036;28;20210;-67
2022/11/26 06:01:07;;;;;;;10.83;5.50;;;;;;;6.98;82.22;101953.50;5030124;28;20277;-66
2022/11/26 06:03:34;;;;;;;10.95;4.50;;;;;;;7.04;81.51;101958.41;5038002;28;20223;-66
2022/11/26 06:06:02;;;;;;;8.70;4.30;;;;;;;7.05;81.53;101965.38;5032996;28;20223;-67
2022/11/26 06:08:31;;;;;;;14.27;5.50;;;;;;;7.13;81.07;101962.28;5034449;28;20217;-66
2022/11/26 06:10:59;;;;;;;13.83;5.10;;;;;;;7.18;80.91;101958.47;5042278;28;20254;-66
2022/11/26 06:13:27;;;;;;;12.67;4.90;;;;;;;7.03;81.12;101964.66;5025657;28;20306;-67
2022/11/26 06:15:55;;;;;;;13.73;4.83;;;;;;;6.95;81.22;101976.59;5033031;28;20209;-67
2022/11/26 06:18:22;;;;;;;14.47;5.33;;;;;;;6.94;80.98;101974.88;5025879;28;20273;-65
2022/11/26 06:20:50;;;;;;;9.57;4.63;;;;;;;6.89;81.13;101985.69;5032709;28;20751;-66
2022/11/26 06:23:18;;;;;;;13.60;5.70;;;;;;;6.80;81.16;101987.06;5042399;28;20235;-65
2022/11/26 06:25:47;;;;;;;11.67;4.70;;;;;;;6.73;81.11;101990.13;5039489;28;20251;-66
2022/11/26 06:28:14;;;;;;;14.73;5.53;;;;;;;6.67;81.21;101987.84;5045044;28;20228;-66
2022/11/26 06:30:44;;;;;;;13.43;5.00;;;;;;;6.60;81.56;101987.31;5052195;28;20268;-65
2022/11/26 06:33:12;;;;;;;12.23;5.23;;;;;;;6.57;81.81;101991.94;5044279;28;20200;-66
2022/11/26 06:35:40;;;;;;;12.30;5.50;;;;;;;6.56;82.16;101991.06;5036180;28;20214;-66
2022/11/26 06:38:08;;;;;;;12.50;5.63;;;;;;;6.53;82.28;101993.00;5042899;28;20588;-66
2022/11/26 06:40:35;;;;;;;14.90;5.93;;;;;;;6.50;82.16;101996.69;5045757;28;20194;-66
2022/11/26 06:43:05;;;;;;;12.53;5.40;;;;;;;6.50;81.81;102001.13;5036288;28;20209;-66
2022/11/26 06:45:34;;;;;;;12.63;4.90;;;;;;;6.57;81.46;101995.41;5038709;28;20254;-66
2022/11/26 06:48:02;;;;;;;12.37;4.80;;;;;;;6.66;81.43;101997.53;5038091;28;20217;-66
2022/11/26 06:50:30;;;;;;;17.00;5.30;;;;;;;6.88;80.47;101991.88;5044378;28;20219;-65
2022/11/26 06:52:57;;;;;;;13.37;5.10;;;;;;;7.02;79.56;101999.88;5038522;28;20202;-66
2022/11/26 06:55:25;;;;;;;10.93;5.10;;;;;;;7.04;79.17;101997.97;5040127;28;20208;-64
2022/11/26 06:57:53;;;;;;;16.57;5.37;;;;;;;7.12;78.76;102010.75;5039356;28;20273;-66
2022/11/26 07:00:22;;;;;;;12.13;5.10;;;;;;;7.00;79.07;102006.16;5046006;28;20662;-65
2022/11/26 07:02:50;;;;;;;14.00;6.03;;;;;;;6.86;79.74;102012.22;5052061;28;20240;-65
2022/11/26 07:05:18;;;;;;;14.63;5.43;;;;;;;6.78;79.87;102017.91;5041418;28;20221;-65
2022/11/26 07:07:46;;;;;;;14.20;6.13;;;;;;;6.66;80.29;102021.25;5038174;28;20215;-64
2022/11/26 07:10:13;;;;;;;16.00;6.07;;;;;;;6.62;80.08;102027.63;5035443;28;20804;-65
2022/11/26 07:12:41;;;;;;;14.47;5.43;;;;;;;6.53;79.87;102033.41;5040369;28;20237;-65
2022/11/26 07:15:10;;;;;;;10.67;5.20;;;;;;;6.50;80.07;102038.88;5042394;28;20213;-67
2022/11/26 07:17:39;;;;;;;19.63;6.50;;;;;;;6.57;79.64;102039.38;5037708;28;20219;-66
2022/11/26 07:20:08;;;;;;;13.23;5.77;;;;;;;6.58;79.91;102033.16;5033735;28;20260;-67
2022/11/26 07:22:35;;;;;;;18.20;8.70;;;;;;;6.69;80.05;102038.69;5038376;28;20224;-66
2022/11/26 07:25:04;;;;;;;34.37;16.43;;;;;;;6.81;79.67;102043.28;5044624;28;20233;-66
2022/11/26 07:27:38;;;;;;;32.87;17.80;;;;;;;6.96;79.27;102052.09;5042409;28;20226;-66
2022/11/26 07:30:07;;;;;;;33.00;17.10;;;;;;;7.09;78.62;102043.44;5046092;28;20192;-66
2022/11/26 07:32:35;;;;;;;21.23;11.70;;;;;;;7.07;78.45;102050.56;5038164;28;20209;-66
2022/11/26 07:35:05;;;;;;;17.87;8.70;;;;;;;6.90;79.16;102053.31;5036790;28;20216;-66
2022/11/26 07:37:33;;;;;;;15.70;7.80;;;;;;;6.75;79.84;102052.38;5032366;28;20211;-65
2022/11/26 07:40:01;;;;;;;16.63;7.27;;;;;;;6.83;79.95;102053.75;5040251;28;20213;-66
2022/11/26 07:42:30;;;;;;;16.57;7.60;;;;;;;6.99;79.72;102065.13;5045778;28;20200;-66
2022/11/26 07:44:58;;;;;;;17.27;7.97;;;;;;;6.95;79.29;102061.81;5037983;28;20213;-66
2022/11/26 07:47:26;;;;;;;17.97;7.87;;;;;;;6.84;80.17;102066.84;5034597;28;20206;-67
2022/11/26 07:49:54;;;;;;;14.90;7.00;;;;;;;6.96;80.35;102062.66;5039803;28;20196;-65
2022/11/26 07:52:23;;;;;;;15.33;7.53;;;;;;;7.04;80.28;102077.09;5050380;28;20240;-64
2022/11/26 07:54:50;;;;;;;16.63;7.30;;;;;;;7.11;80.08;102085.56;5041873;28;20209;-66
2022/11/26 07:57:20;;;;;;;14.53;5.97;;;;;;;7.30;79.87;102085.38;5043900;28;20209;-65
2022/11/26 07:59:48;;;;;;;11.47;5.67;;;;;;;7.28;79.76;102092.50;5037602;28;20213;-67
2022/11/26 08:02:16;;;;;;;17.53;5.47;;;;;;;7.24;80.34;102088.34;5045787;28;20210;-65
2022/11/26 08:04:44;;;;;;;11.07;4.73;;;;;;;7.27;80.15;102090.81;5037253;28;20209;-66
2022/11/26 08:07:12;;;;;;;11.27;4.77;;;;;;;7.35;80.02;102097.34;5035055;28;20206;-66
2022/11/26 08:09:51;;;;;;;18.00;5.37;;;;;;;7.51;79.19;102097.31;5035066;28;20368;-67
2022/11/26 08:12:18;;;;;;;12.97;5.17;;;;;;;7.62;78.86;102094.91;5039203;28;20245;-66
2022/11/26 08:14:46;;;;;;;20.07;6.13;;;;;;;7.77;78.05;102087.84;5039836;28;20206;-66
2022/11/26 08:17:14;;;;;;;29.97;7.57;;;;;;;7.85;77.58;102088.25;5037611;28;20277;-65
2022/11/26 08:19:41;;;;;;;14.83;5.97;;;;;;;7.78;78.05;102089.56;5040043;28;20263;-67
2022/11/26 08:22:09;;;;;;;12.03;5.90;;;;;;;7.79;78.06;102092.13;5049953;28;20232;-68
2022/11/26 08:24:38;;;;;;;13.50;5.63;;;;;;;7.75;78.09;102095.84;5043488;28;20197;-68
2022/11/26 08:27:08;;;;;;;12.80;5.97;;;;;;;7.71;78.17;102094.34;5040653;28;20482;-67
2022/11/26 08:29:36;;;;;;;16.20;6.13;;;;;;;7.72;78.53;102096.06;5048364;28;20211;-67
2022/11/26 08:32:04;;;;;;;13.17;6.53;;;;;;;7.76;78.39;102097.56;5033679;28;20217;-68
2022/11/26 08:34:32;;;;;;;14.27;6.93;;;;;;;7.92;78.64;102094.84;5035221;28;20230;-67
2022/11/26 08:37:00;;;;;;;15.20;6.90;;;;;;;7.93;78.41;102100.06;5038302;28;20241;-66
2022/11/26 08:39:28;;;;;;;15.03;7.53;;;;;;;7.93;79.27;102101.84;5037614;28;20250;-66
2022/11/26 08:41:56;;;;;;;15.57;7.50;;;;;;;8.07;79.24;102104.53;5042397;28;20206;-67
2022/11/26 08:44:25;;;;;;;16.63;7.23;;;;;;;8.17;79.12;102108.31;5038162;28;20219;-66
2022/11/26 08:46:52;;;;;;;20.07;7.93;;;;;;;8.23;79.15;102101.81;5034476;28;20221;-67
2022/11/26 08:49:20;;;;;;;13.43;7.07;;;;;;;8.29;79.05;102099.63;5035285;28;20223;-66
2022/11/26 08:51:48;;;;;;;13.83;7.10;;;;;;;8.36;79.01;102102.75;5041314;28;20208;-66
2022/11/26 08:54:16;;;;;;;16.37;7.00;;;;;;;8.46;78.73;102103.91;5045528;28;20851;-67
2022/11/26 08:56:43;;;;;;;15.23;6.70;;;;;;;8.66;78.38;102106.16;5037065;28;20484;-66
2022/11/26 08:59:11;;;;;;;12.97;6.47;;;;;;;9.00;77.15;102110.16;5044307;28;20243;-68
2022/11/26 09:01:40;;;;;;;11.60;6.23;;;;;;;9.37;75.90;102113.94;5042791;28;20214;-66
2022/11/26 09:04:08;;;;;;;10.83;5.97;;;;;;;9.68;74.42;102120.69;5040704;28;20204;-67
2022/11/26 09:06:36;;;;;;;9.57;5.47;;;;;;;9.94;73.32;102116.28;5034101;28;20245;-66
2022/11/26 09:09:16;;;;;;;11.00;6.23;;;;;;;10.57;71.51;102112.81;5040465;28;20224;-66
2022/11/26 09:11:47;;;;;;;10.77;5.73;;;;;;;11.93;66.97;102114.31;5039103;28;20232;-66
2022/11/26 09:14:17;;;;;;;13.57;6.10;;;;;;;12.39;63.06;102115.13;5037356;28;20297;-66
2022/11/26 09:16:46;;;;;;;11.10;5.67;;;;;;;12.00;63.52;102112.88;5042719;28;20211;-66
2022/11/26 09:19:15;;;;;;;13.30;6.17;;;;;;;12.39;63.96;102120.44;5037830;28;20275;-66
2022/11/26 09:21:42;;;;;;;10.10;5.97;;;;;;;14.45;58.56;102114.06;5036741;28;20218;-67
2022/11/26 09:24:11;;;;;;;9.23;5.50;;;;;;;17.23;50.18;102109.44;5032803;28;20218;-66
2022/11/26 09:26:38;;;;;;;8.73;4.77;;;;;;;19.16;44.22;102111.75;5036650;28;20233;-67
2022/11/26 09:29:06;;;;;;;8.77;4.87;;;;;;;20.21;41.92;102110.09;5043101;28;20210;-66
2022/11/26 09:31:34;;;;;;;9.50;5.60;;;;;;;20.51;40.40;102112.06;5042632;28;20615;-67
2022/11/26 09:34:03;;;;;;;10.00;5.10;;;;;;;20.89;39.64;102104.16;5031031;28;20224;-66
2022/11/26 09:36:31;;;;;;;8.73;5.13;;;;;;;20.95;39.20;102117.75;5037598;28;20272;-67
2022/11/26 09:38:59;;;;;;;8.17;4.97;;;;;;;20.07;40.70;102119.69;5036354;28;20225;-66
2022/11/26 09:41:39;;;;;;;8.57;4.70;;;;;;;18.33;42.79;102126.81;5039210;28;20220;-66
2022/11/26 09:44:19;;;;;;;9.33;5.10;;;;;;;16.68;46.83;102130.91;5026620;28;20228;-67
2022/11/26 09:46:58;;;;;;;9.53;5.33;;;;;;;15.40;50.21;102136.66;5041363;28;20576;-67
2022/11/26 09:49:49;;;;;;;10.67;5.37;;;;;;;14.35;53.34;102132.66;5037933;28;20219;-67
2022/11/26 09:52:19;;;;;;;9.60;5.30;;;;;;;13.71;55.85;102138.13;5033317;28;20213;-67
2022/11/26 09:54:50;;;;;;;13.23;6.20;;;;;;;13.19;58.00;102134.41;5039566;28;20264;-66
2022/11/26 09:57:23;;;;;;;8.63;5.10;;;;;;;12.87;60.04;102135.28;5038068;28;20208;-66
2022/11/26 09:59:53;;;;;;;7.60;4.67;;;;;;;12.56;61.25;102129.75;5030231;28;20205;-66
2022/11/26 10:02:23;;;;;;;9.67;4.80;;;;;;;12.46;61.39;102122.59;5031935;28;20201;-65
2022/11/26 10:04:53;;;;;;;11.03;5.53;;;;;;;12.33;61.78;102126.22;5037407;28;20205;-66
2022/11/26 10:07:38;;;;;;;7.97;4.97;;;;;;;12.23;63.10;102130.56;5030329;28;20304;-67
2022/11/26 10:10:15;;;;;;;13.33;5.23;;;;;;;12.22;62.99;102134.19;5031695;28;20265;-67
2022/11/26 10:12:53;;;;;;;8.40;4.47;;;;;;;12.06;63.12;102126.53;5033363;28;20623;-66
2022/11/26 10:15:51;;;;;;;9.33;5.90;;;;;;;11.80;64.66;102134.78;5037682;28;20209;-67
2022/11/26 10:18:31;;;;;;;14.93;7.50;;;;;;;11.71;65.22;102138.97;5033908;28;20213;-66
2022/11/26 10:21:12;;;;;;;11.10;6.70;;;;;;;11.53;65.49;102141.19;5038251;28;20224;-67
2022/11/26 10:23:45;;;;;;;11.80;6.50;;;;;;;11.34;67.01;102140.88;5025839;28;20719;-68
2022/11/26 10:26:17;;;;;;;14.30;6.40;;;;;;;11.47;66.94;102136.34;5039022;28;20229;-66
2022/11/26 10:28:47;;;;;;;10.77;6.20;;;;;;;11.94;65.29;102140.78;5039878;28;20211;-68
2022/11/26 10:31:20;;;;;;;10.20;6.20;;;;;;;11.96;64.95;102132.69;5035171;28;20216;-67
2022/11/26 10:34:00;;;;;;;13.60;6.33;;;;;;;11.73;65.66;102137.03;5030068;28;20206;-66
2022/11/26 10:36:35;;;;;;;12.57;6.83;;;;;;;11.63;66.20;102125.41;5029325;28;20214;-66
2022/11/26 10:39:03;;;;;;;11.33;6.30;;;;;;;11.48;67.58;102123.91;5030981;28;20213;-67
2022/11/26 10:41:35;;;;;;;11.97;6.63;;;;;;;11.42;68.02;102119.91;5033130;28;20213;-65
2022/11/26 10:44:30;;;;;;;13.57;7.63;;;;;;;11.34;68.08;102126.75;5030748;28;20223;-66
2022/11/26 10:46:59;;;;;;;16.53;7.33;;;;;;;11.19;68.60;102136.66;5033403;28;20667;-66
2022/11/26 10:49:29;;;;;;;17.13;8.27;;;;;;;11.14;68.99;102134.34;5033165;28;20216;-66
2022/11/26 10:52:03;;;;;;;17.57;8.23;;;;;;;11.49;68.69;102129.09;5039296;28;20215;-66
2022/11/26 10:54:34;;;;;;;14.00;7.37;;;;;;;11.62;67.23;102124.56;5029904;28;20210;-66
2022/11/26 10:57:06;;;;;;;12.07;6.47;;;;;;;11.57;67.01;102121.41;5032402;28;20205;-67
2022/11/26 10:59:39;;;;;;;12.03;7.07;;;;;;;11.54;67.27;102126.94;5035571;28;20216;-67
2022/11/26 11:02:28;;;;;;;14.03;6.73;;;;;;;11.49;68.12;102122.94;5031244;28;20203;-67
2022/11/26 11:04:58;;;;;;;13.77;6.47;;;;;;;11.50;67.47;102114.84;5031900;28;20235;-67
2022/11/26 11:07:40;;;;;;;11.73;6.53;;;;;;;11.65;67.65;102121.69;5042072;28;20578;-65
2022/11/26 11:10:15;;;;;;;13.53;7.17;;;;;;;11.68;67.20;102120.59;5036790;28;20292;-66
2022/11/26 11:12:48;;;;;;;15.07;7.90;;;;;;;11.58;67.60;102120.44;5041687;28;20242;-67
2022/11/26 11:15:23;;;;;;;21.43;7.60;;;;;;;11.51;67.65;102119.22;5040617;28;20281;-65
2022/11/26 11:17:58;;;;;;;16.90;8.93;;;;;;;11.42;68.18;102106.63;5034719;28;20208;-67
2022/11/26 11:20:36;;;;;;;17.07;8.23;;;;;;;11.31;68.33;102104.75;5030925;28;20224;-67
2022/11/26 11:23:18;;;;;;;14.50;7.53;;;;;;;11.19;69.27;102099.47;5038458;28;20216;-67
2022/11/26 11:25:56;;;;;;;15.80;7.30;;;;;;;11.11;69.39;102109.81;5050477;28;20217;-68
2022/11/26 11:28:26;;;;;;;18.17;7.43;;;;;;;11.09;70.04;102103.75;5041929;28;20297;-66
2022/11/26 11:31:02;;;;;;;15.97;7.33;;;;;;;11.09;69.80;102115.22;5038420;28;20209;-66
2022/11/26 11:33:31;;;;;;;12.60;6.70;;;;;;;11.10;69.61;102102.81;5036447;28;20193;-66
2022/11/26 11:36:16;;;;;;;16.30;7.30;;;;;;;11.06;69.98;102104.00;5034899;28;20202;-66
2022/11/26 11:38:50;;;;;;;16.90;7.07;;;;;;;11.01;70.04;102092.84;5032558;28;20233;-66